Web Počasí Slunečno.cz™ (Podmínky, ePrivacy) používá cookies a personalizace pro reklamní účely. Pohybem po stránce vyjadřujete souhlas. Odejít

Aktuální počasí v Česku a ve světě - METAR

Seznam meteostanic umístěných nejčasteji na letišti v ČR a ve světě

Vyhledat místa podle abecedy:
A B C D E F G H I J K L M N O P Q R S T U V W X Y Z

Filtrovat:

ID stanice:
a/nebo
Název místa (fulltext):
 
Místo (ID)Naposledy načteno 
Zadar (LDZD) 26.10.2021 14:00 UTC Zobrazit METAR
LDZD 261400Z 32007KT 290V010 9999 FEW050 17/04 Q1020 NOSIG
Zagreb (LDZA) 26.10.2021 14:00 UTC Zobrazit METAR
LDZA 261400Z VRB01KT CAVOK 13/05 Q1023 NOSIG
Zaragoza (LEZG) 26.10.2021 14:00 UTC Zobrazit METAR
LEZG 261400Z 30006KT 240V340 CAVOK 20/08 Q1023
Zhezkazgan (UAKD) Zatím nenačteno  
Zurich (LSZH) 26.10.2021 13:50 UTC Zobrazit METAR
LSZH 261350Z VRB03KT 9999 BKN065 14/08 Q1025 NOSIG
Reklama

Reklama


Newslettter

Počasí na Váš email

Každý den Vám pošleme předpověď
Emaily chodí ráno a bez reklamy



Odhlásit newsletter


Další české internetové stránky o počasí najdete v katalogu TOPlist - weby o počasí nebo vyhledejte na internetu, co jste tu na Počasí Slunečno Slunečnu zatím nenašli:
Reklama